createdAt,value
2022-09-30T00:00:10.961Z,7.18
2022-09-30T00:02:38.649Z,7.21
2022-09-30T00:05:07.003Z,7.19
2022-09-30T00:07:34.682Z,7.26
2022-09-30T00:10:02.829Z,7.26
2022-09-30T00:12:30.919Z,7.29
2022-09-30T00:14:59.946Z,7.34
2022-09-30T00:17:28.238Z,7.35
2022-09-30T00:19:55.896Z,7.35
2022-09-30T00:22:23.559Z,7.36
2022-09-30T00:24:51.450Z,7.28
2022-09-30T00:27:19.911Z,7.24
2022-09-30T00:29:47.546Z,7.25
2022-09-30T00:32:16.603Z,7.31
2022-09-30T00:34:44.385Z,7.34
2022-09-30T00:37:15.141Z,7.35
2022-09-30T00:39:42.809Z,7.27
2022-09-30T00:42:14.158Z,7.28
2022-09-30T00:44:53.536Z,7.26
2022-09-30T00:47:50.375Z,7.22
2022-09-30T00:50:28.919Z,7.20
2022-09-30T00:53:03.167Z,7.19
2022-09-30T00:55:47.739Z,7.19
2022-09-30T00:58:21.239Z,7.15
2022-09-30T01:00:49.348Z,7.12
2022-09-30T01:03:20.555Z,7.13
2022-09-30T01:05:48.222Z,7.10
2022-09-30T01:08:18.598Z,7.19
2022-09-30T01:10:46.501Z,7.18
2022-09-30T01:13:15.555Z,7.16
2022-09-30T01:15:58.965Z,7.12
2022-09-30T01:18:35.678Z,7.14
2022-09-30T01:21:28.083Z,7.20
2022-09-30T01:24:13.888Z,7.18
2022-09-30T01:26:57.608Z,7.16
2022-09-30T01:29:45.267Z,7.13
2022-09-30T01:32:20.803Z,7.20
2022-09-30T01:34:54.450Z,7.25
2022-09-30T01:37:34.011Z,7.27
2022-09-30T01:40:06.375Z,7.22
2022-09-30T01:42:42.489Z,7.19
2022-09-30T01:45:17.906Z,7.17
2022-09-30T01:47:52.078Z,7.16
2022-09-30T01:50:25.002Z,7.15
2022-09-30T01:53:01.708Z,7.18
2022-09-30T01:55:34.158Z,7.19
2022-09-30T01:58:06.993Z,7.23
2022-09-30T02:00:39.556Z,7.32
2022-09-30T02:03:16.271Z,7.32
2022-09-30T02:05:51.082Z,7.33
2022-09-30T02:08:24.621Z,7.28
2022-09-30T02:10:57.157Z,7.25
2022-09-30T02:13:32.924Z,7.22
2022-09-30T02:16:13.006Z,7.22
2022-09-30T02:18:47.074Z,7.18
2022-09-30T02:21:19.143Z,7.16
2022-09-30T02:23:50.724Z,7.15
2022-09-30T02:26:23.048Z,7.18
2022-09-30T02:28:55.229Z,7.10
2022-09-30T02:31:25.448Z,7.04
2022-09-30T02:33:58.778Z,6.95
2022-09-30T02:36:31.839Z,6.89
2022-09-30T02:39:05.097Z,6.82
2022-09-30T02:41:39.865Z,6.79
2022-09-30T02:44:07.911Z,6.77
2022-09-30T02:46:44.684Z,6.66
2022-09-30T02:49:24.173Z,6.56
2022-09-30T02:52:05.436Z,6.57
2022-09-30T02:54:37.521Z,6.52
2022-09-30T02:57:15.893Z,6.48
2022-09-30T02:59:43.651Z,6.43
2022-09-30T03:02:11.424Z,6.40
2022-09-30T03:04:42.808Z,6.49
2022-09-30T03:07:11.510Z,6.54
2022-09-30T03:09:39.566Z,6.58
2022-09-30T03:12:16.724Z,6.56
2022-09-30T03:15:01.375Z,6.51
2022-09-30T03:17:49.620Z,6.45
2022-09-30T03:20:34.343Z,6.37
2022-09-30T03:23:24.531Z,6.34
2022-09-30T03:25:59.992Z,6.34
2022-09-30T03:28:32.344Z,6.34
2022-09-30T03:31:07.300Z,6.36
2022-09-30T03:33:45.250Z,-144.85
2022-09-30T03:36:20.056Z,6.53
2022-09-30T03:38:52.997Z,6.52
2022-09-30T03:41:28.544Z,6.47
2022-09-30T03:43:59.547Z,6.43
2022-09-30T03:46:31.631Z,6.44
2022-09-30T03:49:03.415Z,6.49
2022-09-30T03:51:33.777Z,6.54
2022-09-30T03:54:01.504Z,6.62
2022-09-30T03:56:31.808Z,-144.85
2022-09-30T03:59:01.598Z,21.25
2022-09-30T04:01:29.503Z,-144.85
2022-09-30T04:03:57.253Z,-144.85
2022-09-30T04:06:26.175Z,-144.85
2022-09-30T04:08:55.242Z,-144.85
2022-09-30T04:11:23.132Z,-144.85
2022-09-30T04:13:50.857Z,-144.85
2022-09-30T04:16:19.043Z,-144.85
2022-09-30T04:18:46.791Z,-144.85
2022-09-30T04:21:15.697Z,-144.85
2022-09-30T04:23:43.927Z,-144.85
2022-09-30T04:26:16.305Z,-144.85
2022-09-30T04:28:44.516Z,-144.85
2022-09-30T04:31:13.553Z,-144.85
2022-09-30T04:33:41.717Z,-144.85
2022-09-30T04:36:09.585Z,-144.85
2022-09-30T04:38:37.384Z,-144.85
2022-09-30T04:41:06.414Z,-144.85
2022-09-30T04:43:35.775Z,-144.85
2022-09-30T04:46:03.605Z,-144.85
2022-09-30T04:48:32.362Z,-144.85
2022-09-30T04:51:00.917Z,-144.85
2022-09-30T04:53:29.342Z,-144.85
2022-09-30T04:56:00.971Z,-144.85
2022-09-30T04:58:32.224Z,-144.85
2022-09-30T05:01:05.139Z,-144.85
2022-09-30T05:03:32.902Z,-144.85
2022-09-30T05:06:00.658Z,-144.85
2022-09-30T05:08:28.729Z,-144.85
2022-09-30T05:10:58.078Z,-144.85
2022-09-30T05:13:26.646Z,-144.85
2022-09-30T05:15:54.395Z,-144.85
2022-09-30T05:18:26.380Z,-144.85
2022-09-30T05:20:55.076Z,-144.85
2022-09-30T05:23:22.821Z,-144.85
2022-09-30T05:25:51.655Z,-144.85
2022-09-30T05:28:19.983Z,-144.85
2022-09-30T05:30:49.926Z,-144.85
2022-09-30T05:33:18.124Z,-144.85
2022-09-30T05:35:47.821Z,-144.85
2022-09-30T05:38:15.518Z,-144.85
2022-09-30T05:40:43.205Z,-144.85
2022-09-30T05:43:11.363Z,-144.85
2022-09-30T05:45:39.308Z,-144.85
2022-09-30T05:48:07.782Z,-144.85
2022-09-30T05:50:35.528Z,-144.85
2022-09-30T05:53:04.586Z,-144.85
2022-09-30T05:55:35.835Z,-144.85
2022-09-30T05:58:07.075Z,-144.85
2022-09-30T06:00:34.796Z,-144.85
2022-09-30T06:03:02.560Z,-144.85
2022-09-30T06:05:30.571Z,-144.85
2022-09-30T06:07:58.274Z,-144.85
2022-09-30T06:10:27.425Z,-144.85
2022-09-30T06:12:55.197Z,-144.85
2022-09-30T06:15:22.910Z,-144.85
2022-09-30T06:17:53.903Z,-144.85
2022-09-30T06:20:21.929Z,-144.85
2022-09-30T06:22:49.863Z,-144.85
2022-09-30T06:25:17.909Z,-144.85
2022-09-30T06:27:47.631Z,-98.16
2022-09-30T06:30:15.745Z,8.03
2022-09-30T06:32:44.002Z,8.04
2022-09-30T06:35:12.099Z,-144.85
2022-09-30T06:37:41.924Z,-144.85
2022-09-30T06:40:10.623Z,8.24
2022-09-30T06:42:38.368Z,8.22
2022-09-30T06:45:11.187Z,8.35
2022-09-30T06:47:45.413Z,8.46
2022-09-30T06:50:25.444Z,8.47
2022-09-30T06:52:57.892Z,8.56
2022-09-30T06:55:27.112Z,8.66
2022-09-30T06:57:55.459Z,8.70
2022-09-30T07:00:24.636Z,8.91
2022-09-30T07:02:52.432Z,-144.85
2022-09-30T07:05:20.232Z,-144.85
2022-09-30T07:07:49.163Z,-144.85
2022-09-30T07:10:17.071Z,-144.85
2022-09-30T07:12:44.930Z,-144.85
2022-09-30T07:15:13.893Z,9.47
2022-09-30T07:17:44.049Z,9.48
2022-09-30T07:20:12.130Z,-144.85
2022-09-30T07:22:40.723Z,-144.85
2022-09-30T07:25:09.725Z,-144.85
2022-09-30T07:27:37.466Z,-144.85
2022-09-30T07:30:14.227Z,-144.85
2022-09-30T07:32:45.396Z,10.05
2022-09-30T07:35:13.597Z,10.05
2022-09-30T07:37:41.548Z,-144.85
2022-09-30T07:40:10.481Z,10.29
2022-09-30T07:42:43.217Z,10.32
2022-09-30T07:45:12.104Z,10.48
2022-09-30T07:47:39.989Z,10.65
2022-09-30T07:50:10.969Z,10.59
2022-09-30T07:52:39.573Z,10.53
2022-09-30T07:55:08.031Z,10.64
2022-09-30T07:57:35.876Z,10.54
2022-09-30T08:00:17.260Z,10.54
2022-09-30T08:02:52.780Z,10.73
2022-09-30T08:05:22.208Z,10.77
2022-09-30T08:07:50.433Z,10.84
2022-09-30T08:12:54.455Z,11.03
2022-09-30T08:15:25.905Z,11.26
2022-09-30T08:17:53.934Z,11.24
2022-09-30T08:20:23.625Z,11.42
2022-09-30T08:22:53.748Z,11.43
2022-09-30T08:25:21.529Z,11.24
2022-09-30T08:27:49.412Z,11.32
2022-09-30T08:30:17.445Z,11.27
2022-09-30T08:32:45.342Z,11.39
2022-09-30T08:35:13.125Z,11.82
2022-09-30T08:37:42.329Z,11.99
2022-09-30T08:40:20.386Z,11.94
2022-09-30T08:43:03.694Z,11.82
2022-09-30T08:45:43.547Z,11.80
2022-09-30T08:48:28.783Z,11.78
2022-09-30T08:51:08.082Z,11.84
2022-09-30T08:53:42.064Z,12.11
2022-09-30T08:56:18.613Z,12.09
2022-09-30T08:58:49.851Z,11.98
2022-09-30T09:01:23.569Z,11.76
2022-09-30T09:03:51.414Z,11.64
2022-09-30T09:06:27.268Z,11.61
2022-09-30T09:09:10.483Z,11.86
2022-09-30T09:11:53.545Z,11.97
2022-09-30T09:14:33.644Z,12.02
2022-09-30T09:17:15.261Z,12.04
2022-09-30T09:19:46.874Z,12.06
2022-09-30T09:22:15.147Z,11.93
2022-09-30T09:24:47.335Z,11.65
2022-09-30T09:27:21.847Z,11.49
2022-09-30T09:30:00.157Z,11.73
2022-09-30T09:32:29.504Z,11.83
2022-09-30T09:35:01.424Z,12.11
2022-09-30T09:37:58.259Z,12.03
2022-09-30T09:40:35.898Z,11.95
2022-09-30T09:43:14.227Z,12.09
2022-09-30T09:45:48.617Z,12.10
2022-09-30T09:48:17.463Z,12.13
2022-09-30T09:50:56.871Z,12.15
2022-09-30T09:53:41.352Z,12.00
2022-09-30T09:56:18.675Z,11.93
2022-09-30T09:59:08.996Z,12.22
2022-09-30T10:01:39.010Z,12.55
2022-09-30T10:04:19.332Z,12.78
2022-09-30T10:06:54.141Z,13.06
2022-09-30T10:09:36.879Z,13.29
2022-09-30T10:12:28.498Z,13.41
2022-09-30T10:15:02.422Z,13.44
2022-09-30T10:17:32.986Z,13.71
2022-09-30T10:20:07.077Z,13.51
2022-09-30T10:22:36.863Z,13.16
2022-09-30T10:25:19.044Z,12.97
2022-09-30T10:27:57.005Z,12.81
2022-09-30T10:30:33.572Z,12.86
2022-09-30T10:33:04.262Z,12.78
2022-09-30T10:35:32.322Z,12.75
2022-09-30T10:38:01.401Z,13.12
2022-09-30T10:40:31.244Z,13.19
2022-09-30T10:43:00.299Z,13.36
2022-09-30T10:45:33.976Z,13.32
2022-09-30T10:48:07.569Z,13.34
2022-09-30T10:50:35.636Z,13.46
2022-09-30T10:53:12.314Z,13.77
2022-09-30T10:55:44.800Z,14.22
2022-09-30T10:58:27.421Z,14.98
2022-09-30T11:00:59.206Z,15.40
2022-09-30T11:03:36.237Z,15.74
2022-09-30T11:06:05.214Z,16.02
2022-09-30T11:08:40.147Z,16.83
2022-09-30T11:11:14.025Z,16.94
2022-09-30T11:13:50.088Z,16.54
2022-09-30T11:16:26.164Z,15.93
2022-09-30T11:19:01.636Z,15.57
2022-09-30T11:21:36.451Z,15.07
2022-09-30T11:24:17.919Z,14.53
2022-09-30T11:26:51.598Z,14.00
2022-09-30T11:29:40.471Z,13.65
2022-09-30T11:32:19.707Z,13.40
2022-09-30T11:34:57.785Z,13.24
2022-09-30T11:37:40.164Z,13.13
2022-09-30T11:40:31.252Z,13.10
2022-09-30T11:43:09.635Z,13.21
2022-09-30T11:45:56.977Z,13.32
2022-09-30T11:48:39.225Z,13.51
2022-09-30T11:51:15.501Z,13.48
2022-09-30T11:53:53.205Z,13.54
2022-09-30T11:56:39.217Z,13.77
2022-09-30T11:59:11.850Z,13.93
2022-09-30T12:01:45.121Z,14.06
2022-09-30T12:04:17.034Z,14.08
2022-09-30T12:06:50.535Z,14.22
2022-09-30T12:09:23.937Z,14.44
2022-09-30T12:11:57.615Z,14.59
2022-09-30T12:14:31.064Z,14.63
2022-09-30T12:17:05.648Z,14.79
2022-09-30T12:19:39.230Z,14.99
2022-09-30T12:22:13.024Z,14.82
2022-09-30T12:24:42.885Z,14.71
2022-09-30T12:27:17.708Z,14.63
2022-09-30T12:30:12.690Z,14.52
2022-09-30T12:33:11.688Z,14.25
2022-09-30T12:36:00.020Z,14.39
2022-09-30T12:38:43.182Z,14.19
2022-09-30T12:41:25.543Z,14.12
2022-09-30T12:44:30.472Z,14.05
2022-09-30T12:47:22.265Z,14.09
2022-09-30T12:49:52.096Z,14.55
2022-09-30T12:52:22.561Z,15.14
2022-09-30T12:54:54.634Z,14.95
2022-09-30T12:57:27.318Z,15.08
2022-09-30T12:59:59.066Z,15.02
2022-09-30T13:02:35.520Z,14.89
2022-09-30T13:05:40.279Z,15.09
2022-09-30T13:08:27.599Z,15.35
2022-09-30T13:10:59.269Z,15.39
2022-09-30T13:13:30.573Z,15.32
2022-09-30T13:16:03.253Z,15.44
2022-09-30T13:19:02.906Z,15.40
2022-09-30T13:21:32.183Z,15.37
2022-09-30T13:24:01.784Z,15.28
2022-09-30T13:26:40.752Z,15.33
2022-09-30T13:29:48.365Z,15.37
2022-09-30T13:32:33.700Z,15.57
2022-09-30T13:35:02.080Z,15.47
2022-09-30T13:37:38.192Z,15.63
2022-09-30T13:40:18.230Z,15.47
2022-09-30T13:42:54.438Z,15.50
2022-09-30T13:45:33.898Z,15.38
2022-09-30T13:48:10.959Z,15.59
2022-09-30T13:50:46.537Z,15.46
2022-09-30T13:53:16.840Z,15.46
2022-09-30T13:55:50.839Z,15.82
2022-09-30T13:58:39.492Z,15.83
2022-09-30T14:01:14.576Z,15.35
2022-09-30T14:04:04.639Z,15.52
2022-09-30T14:06:41.952Z,15.61
2022-09-30T14:09:30.150Z,15.36
2022-09-30T14:12:29.933Z,15.48
2022-09-30T14:15:35.891Z,15.60
2022-09-30T14:18:30.268Z,15.47
2022-09-30T14:21:18.341Z,15.39
2022-09-30T14:23:46.208Z,15.62
2022-09-30T14:26:33.461Z,15.40
2022-09-30T14:29:10.501Z,15.46
2022-09-30T14:31:45.053Z,15.30
2022-09-30T14:34:14.362Z,15.31
2022-09-30T14:36:42.611Z,15.15
2022-09-30T14:39:17.071Z,15.10
2022-09-30T14:41:51.280Z,14.97
2022-09-30T14:44:21.377Z,14.89
2022-09-30T14:46:51.297Z,14.77
2022-09-30T14:49:29.893Z,14.71
2022-09-30T14:51:59.917Z,14.81
2022-09-30T14:54:29.105Z,14.71
2022-09-30T14:56:57.912Z,14.72
2022-09-30T14:59:28.731Z,14.47
2022-09-30T15:02:00.596Z,14.25
2022-09-30T15:04:31.845Z,14.24
2022-09-30T15:07:01.392Z,13.96
2022-09-30T15:09:33.356Z,13.97
2022-09-30T15:12:06.440Z,13.93
2022-09-30T15:14:36.192Z,13.84
2022-09-30T15:17:06.309Z,13.85
2022-09-30T15:19:35.996Z,13.78
2022-09-30T15:22:05.846Z,13.65
2022-09-30T15:24:36.357Z,13.62
2022-09-30T15:27:05.602Z,13.65
2022-09-30T15:29:33.295Z,13.68
2022-09-30T15:32:05.726Z,13.79
2022-09-30T15:34:34.135Z,13.86
2022-09-30T15:37:06.728Z,13.92
2022-09-30T15:39:55.108Z,13.86
2022-09-30T15:42:32.053Z,13.76
2022-09-30T15:44:59.745Z,13.62
2022-09-30T15:47:29.371Z,13.62
2022-09-30T15:49:57.107Z,13.43
2022-09-30T15:52:30.726Z,13.30
2022-09-30T15:54:59.049Z,13.19
2022-09-30T15:57:46.727Z,13.15
2022-09-30T16:00:35.745Z,13.08
2022-09-30T16:03:25.619Z,12.99
2022-09-30T16:05:54.132Z,12.87
2022-09-30T16:08:25.378Z,12.79
2022-09-30T16:10:56.566Z,12.75
2022-09-30T16:13:28.815Z,12.61
2022-09-30T16:15:58.365Z,12.52
2022-09-30T16:18:33.980Z,12.52
2022-09-30T16:21:05.394Z,12.47
2022-09-30T16:23:38.744Z,12.38
2022-09-30T16:26:14.258Z,12.33
2022-09-30T16:28:43.291Z,12.27
2022-09-30T16:31:11.651Z,12.22
2022-09-30T16:33:43.380Z,12.13
2022-09-30T16:36:11.930Z,-144.85
2022-09-30T16:38:39.778Z,-144.85
2022-09-30T16:41:07.417Z,11.91
2022-09-30T16:43:35.038Z,11.91
2022-09-30T16:46:03.470Z,-144.85
2022-09-30T16:48:31.476Z,11.91
2022-09-30T16:51:04.534Z,-144.85
2022-09-30T16:53:32.312Z,-144.85
2022-09-30T16:56:00.188Z,-144.85
2022-09-30T16:58:27.884Z,-144.85
2022-09-30T17:00:55.586Z,-144.85
2022-09-30T17:03:23.272Z,-144.85
2022-09-30T17:05:52.588Z,-144.85
2022-09-30T17:08:23.815Z,-144.85
2022-09-30T17:10:51.667Z,-144.85
2022-09-30T17:13:20.230Z,-144.85
2022-09-30T17:15:52.010Z,-144.85
2022-09-30T17:18:20.738Z,-144.85
2022-09-30T17:20:52.606Z,-144.85
2022-09-30T17:23:23.501Z,-144.85
2022-09-30T17:25:51.504Z,-144.85
2022-09-30T17:28:19.351Z,-144.85
2022-09-30T17:30:49.246Z,-144.85
2022-09-30T17:33:17.283Z,-144.85
2022-09-30T17:35:45.066Z,-144.85
2022-09-30T17:38:14.295Z,-144.85
2022-09-30T17:41:00.524Z,11.03
2022-09-30T17:43:28.209Z,-144.85
2022-09-30T17:46:00.037Z,-144.85
2022-09-30T17:48:27.744Z,-144.85
2022-09-30T17:50:55.589Z,-144.85
2022-09-30T17:53:23.932Z,-144.85
2022-09-30T17:56:03.910Z,-144.85
2022-09-30T17:58:31.636Z,-144.85
2022-09-30T18:00:59.823Z,-144.85
2022-09-30T18:03:28.156Z,-144.85
2022-09-30T18:05:59.242Z,-144.85
2022-09-30T18:08:28.099Z,-144.85
2022-09-30T18:10:57.868Z,-144.85
2022-09-30T18:13:25.920Z,-144.85
2022-09-30T18:15:53.933Z,-144.85
2022-09-30T18:18:21.650Z,-144.85
2022-09-30T18:20:51.520Z,-144.85
2022-09-30T18:23:19.515Z,-144.85
2022-09-30T18:25:49.209Z,-144.85
2022-09-30T18:28:18.448Z,-144.85
2022-09-30T18:30:46.604Z,-144.85
2022-09-30T18:33:17.182Z,-144.85
2022-09-30T18:35:44.924Z,-144.85
2022-09-30T18:38:14.805Z,-144.85
2022-09-30T18:40:49.919Z,-144.85
2022-09-30T18:43:19.315Z,-144.85
2022-09-30T18:45:54.419Z,-144.85
2022-09-30T18:48:22.123Z,-144.85
2022-09-30T18:50:51.392Z,-144.85
2022-09-30T18:53:20.406Z,-144.85
2022-09-30T18:55:48.553Z,-144.85
2022-09-30T18:58:17.169Z,-144.85
2022-09-30T19:00:46.184Z,-144.85
2022-09-30T19:03:16.084Z,-144.85
2022-09-30T19:05:43.712Z,-144.85
2022-09-30T19:08:12.514Z,-144.85
2022-09-30T19:10:42.181Z,-144.85
2022-09-30T19:13:10.177Z,10.58
2022-09-30T19:15:39.225Z,10.59
2022-09-30T19:18:08.208Z,10.54
2022-09-30T19:20:41.894Z,10.57
2022-09-30T19:23:10.761Z,10.64
2022-09-30T19:25:39.815Z,10.63
2022-09-30T19:28:07.503Z,10.59
2022-09-30T19:30:35.176Z,10.67
2022-09-30T19:33:02.802Z,10.65
2022-09-30T19:35:39.824Z,10.61
2022-09-30T19:38:09.244Z,10.57
2022-09-30T19:40:37.305Z,10.51
2022-09-30T19:43:05.273Z,10.43
2022-09-30T19:45:33.006Z,10.43
2022-09-30T19:48:00.887Z,10.36
2022-09-30T19:50:28.524Z,10.27
2022-09-30T19:52:57.902Z,10.20
2022-09-30T19:55:26.063Z,10.27
2022-09-30T19:57:53.945Z,10.28
2022-09-30T20:00:21.625Z,10.22
2022-09-30T20:02:52.608Z,10.17
2022-09-30T20:05:20.534Z,10.13
2022-09-30T20:07:50.943Z,10.11
2022-09-30T20:10:20.224Z,10.09
2022-09-30T20:12:47.851Z,10.09
2022-09-30T20:15:33.533Z,10.18
2022-09-30T20:18:01.168Z,10.21
2022-09-30T20:20:42.129Z,10.22
2022-09-30T20:23:09.726Z,10.20
2022-09-30T20:25:39.046Z,10.17
2022-09-30T20:28:07.318Z,10.24
2022-09-30T20:30:39.741Z,10.30
2022-09-30T20:33:07.349Z,10.28
2022-09-30T20:35:36.503Z,10.29
2022-09-30T20:38:04.527Z,10.30
2022-09-30T20:40:33.728Z,10.21
2022-09-30T20:43:04.082Z,10.12
2022-09-30T20:45:31.767Z,10.13
2022-09-30T20:47:59.394Z,10.16
2022-09-30T20:50:35.864Z,10.18
2022-09-30T20:53:09.043Z,10.17
2022-09-30T20:55:39.245Z,10.19
2022-09-30T20:58:09.363Z,10.17
2022-09-30T21:00:39.568Z,10.04
2022-09-30T21:03:09.500Z,10.05
2022-09-30T21:05:37.163Z,10.08
2022-09-30T21:08:07.273Z,9.97
2022-09-30T21:10:36.795Z,9.89
2022-09-30T21:13:10.358Z,9.80
2022-09-30T21:15:38.058Z,9.81
2022-09-30T21:18:05.735Z,9.81
2022-09-30T21:20:33.389Z,9.80
2022-09-30T21:23:03.248Z,9.73
2022-09-30T21:25:30.953Z,9.76
2022-09-30T21:27:58.638Z,9.85
2022-09-30T21:30:28.197Z,9.84
2022-09-30T21:32:55.815Z,9.78
2022-09-30T21:35:23.486Z,9.85
2022-09-30T21:37:51.132Z,9.84
2022-09-30T21:40:18.943Z,9.85
2022-09-30T21:42:46.567Z,9.82
2022-09-30T21:45:14.234Z,9.78
2022-09-30T21:47:43.193Z,9.77
2022-09-30T21:50:11.073Z,9.78
2022-09-30T21:52:39.151Z,9.71
2022-09-30T21:55:08.036Z,9.70
2022-09-30T21:57:35.717Z,9.66
2022-09-30T22:00:03.604Z,9.65
2022-09-30T22:02:31.327Z,9.69
2022-09-30T22:05:00.442Z,-144.85
2022-09-30T22:07:28.105Z,-144.85
2022-09-30T22:09:55.725Z,-144.85
2022-09-30T22:12:23.331Z,-144.85
2022-09-30T22:14:50.999Z,-144.85
2022-09-30T22:17:18.679Z,-144.85
2022-09-30T22:19:46.290Z,-144.85
2022-09-30T22:22:15.259Z,-144.85
2022-09-30T22:24:42.864Z,-144.85
2022-09-30T22:27:11.317Z,-144.85
2022-09-30T22:29:38.982Z,-144.85
2022-09-30T22:32:06.722Z,-144.85
2022-09-30T22:34:51.824Z,-144.85
2022-09-30T22:37:38.223Z,-144.85
2022-09-30T22:40:06.719Z,-144.85
2022-09-30T22:42:35.705Z,-144.85
2022-09-30T22:45:03.527Z,-144.85
2022-09-30T22:47:31.726Z,-144.85
2022-09-30T22:49:59.471Z,-144.85
2022-09-30T22:52:31.945Z,-144.85
2022-09-30T22:54:59.641Z,-144.85
2022-09-30T22:57:27.335Z,-144.85
2022-09-30T23:05:36.614Z,9.35
2022-09-30T23:08:04.227Z,9.35
2022-09-30T23:10:31.851Z,9.35
2022-09-30T23:13:00.292Z,9.38
2022-09-30T23:15:27.997Z,9.38
2022-09-30T23:17:55.602Z,9.42
2022-09-30T23:20:23.275Z,9.42
2022-09-30T23:22:52.232Z,9.45
2022-09-30T23:25:19.818Z,9.52
2022-09-30T23:27:48.832Z,9.54
2022-09-30T23:30:16.696Z,9.52
2022-09-30T23:32:44.303Z,9.57
2022-09-30T23:35:12.990Z,9.53
2022-09-30T23:37:40.729Z,9.56
2022-09-30T23:40:10.588Z,9.62
2022-09-30T23:42:38.182Z,9.60
2022-09-30T23:45:06.218Z,9.62
2022-09-30T23:47:34.384Z,9.68
2022-09-30T23:50:01.995Z,9.69
2022-09-30T23:52:29.887Z,9.69
2022-09-30T23:54:57.524Z,9.72
2022-09-30T23:57:26.533Z,9.76
2022-09-30T23:59:54.143Z,9.78
